Pagrindinis puslapis
METAR-TAF:

METAR-TAF

Oro uostai :

Arvidsjaur, Švedija

platuma: 65-35-25N, ilguma: 019-16-55E, Aukštis: 379 m

Dabartinis oras

Ataskaita buvo paskelbta 28 minutes, ne 20:20 UTC
Vėjas 5 kt iš Rytų/Pietryčių
Temperatūra 11°C
Drėgmė 100%
Slėgis 1013 hPa
Matomumas: 9000 m

METAR: ESNX 162020Z AUTO 12005KT 9000 OVC004/// 11/11 Q1013

Laikas: 22:48 (20:48 UTC)

Prognozė

Ataskaita buvo paskelbta 6 valandos ir 18 minutes, ne 14:30 UTC
Prognozė galioja nuo 16 metu 15 UTC su 16 metu 17 UTC
Vėjas 9 kt iš Pietryčių
Matomumas 10 km arba daugiau
Su prošvaistėmis ne aukštis 4000 ft
lietus
Laikinai
nuo 16 metu 16 UTC su 16 metu 17 UTC
Su prošvaistėmis ne aukštis 1000 ft
lietus,

TAF: ESNX 161430Z 1615/1617 14009KT 9999 -RA BKN040 TEMPO 1616/1617 RA BKN010

Orai ataskaitas ir orų prognozės (METAR, TAF).

turimą stotys yra geltonos ir raudonos taškus žemėlapyje.

Perkelti pele per norėdami pamatyti stoties vardą.

Tada spustelėkite, norėdami matyti oro stebėjimo ir prognozės.

Norėdami pakeisti žemėlapį: spustelėkite ant žalios mygtukų su juodo kryžiaus žemyn,; žalią mygtuką su brūkšneliu, jei norite nutolinti; arba žalių rodyklių gretimoms žemėlapius.


METAR-TAF: